Time;durP1;ratioP1;P1;durP2;ratioP2;P2;SDS_P1;SDS_P2;PMS_P1;PMS_P2;Temp;Humidity;BMP_temperature;BMP_pressure;BME280_temperature;BME280_humidity;BME280_pressure;Samples;Min_cycle;Max_cycle;Signal;HPM_P1;HPM_P2
2022/07/05 00:02:00;;;;;;;4.15;0.80;;;15.80;92.80;;;;;;5069363;28;20048;-75
2022/07/05 00:04:26;;;;;;;1.63;0.65;;;15.70;92.90;;;;;;5084426;28;20031;-75
2022/07/05 00:09:37;;;;;;;2.97;1.00;;;15.80;93.20;;;;;;5057968;28;20033;-74
2022/07/05 00:12:03;;;;;;;1.73;0.80;;;15.80;93.10;;;;;;5081992;28;20036;-75
2022/07/05 00:14:30;;;;;;;3.33;0.70;;;15.80;93.30;;;;;;5072377;28;20466;-75
2022/07/05 00:16:57;;;;;;;2.72;0.55;;;15.60;93.50;;;;;;5052468;28;20048;-74
2022/07/05 00:19:23;;;;;;;2.95;0.70;;;15.50;94.50;;;;;;5069225;28;20382;-74
2022/07/05 00:21:49;;;;;;;1.50;0.70;;;15.40;94.70;;;;;;5085719;28;20028;-75
2022/07/05 00:24:15;;;;;;;1.65;0.40;;;15.30;95.00;;;;;;5075318;28;20037;-74
2022/07/05 00:26:41;;;;;;;0.95;0.70;;;15.30;95.50;;;;;;5079171;28;20045;-75
2022/07/05 00:29:07;;;;;;;1.13;0.57;;;15.20;95.50;;;;;;5068897;28;20024;-75
2022/07/05 00:31:34;;;;;;;3.42;0.75;;;15.30;95.30;;;;;;5090100;28;20028;-75
2022/07/05 00:34:00;;;;;;;3.47;1.15;;;15.40;95.50;;;;;;5071434;28;20021;-75
2022/07/05 00:36:26;;;;;;;1.73;0.93;;;15.30;95.80;;;;;;5079664;28;20048;-76
2022/07/05 00:38:53;;;;;;;1.38;0.60;;;15.30;96.20;;;;;;5072960;28;20036;-75
2022/07/05 00:41:19;;;;;;;1.33;0.60;;;15.20;96.10;;;;;;5055669;28;20029;-75
2022/07/05 00:43:57;;;;;;;2.00;0.60;;;15.10;96.60;;;;;;5060520;28;20032;-74
2022/07/05 00:46:25;;;;;;;2.70;0.52;;;15.10;96.90;;;;;;5050197;28;20397;-75
2022/07/05 00:48:52;;;;;;;3.78;0.88;;;15.10;96.70;;;;;;5058628;28;20461;-74
2022/07/05 00:51:18;;;;;;;4.00;0.80;;;15.00;96.70;;;;;;5065292;28;20390;-74
2022/07/05 00:53:45;;;;;;;1.42;0.60;;;14.90;97.00;;;;;;5061432;28;20040;-74
2022/07/05 00:56:13;;;;;;;1.20;0.65;;;14.80;97.40;;;;;;5071987;28;20036;-76
2022/07/05 00:58:40;;;;;;;1.33;0.80;;;14.80;97.70;;;;;;5074367;28;20104;-75
2022/07/05 01:01:07;;;;;;;2.35;0.93;;;14.80;98.00;;;;;;5056025;28;20044;-75
2022/07/05 01:03:34;;;;;;;1.10;0.60;;;14.80;98.00;;;;;;5074041;28;20032;-77
2022/07/05 01:06:02;;;;;;;5.35;1.90;;;14.80;97.80;;;;;;5072597;28;20025;-76
2022/07/05 01:08:29;;;;;;;2.35;0.63;;;14.80;97.70;;;;;;5064140;28;20041;-75
2022/07/05 01:10:56;;;;;;;1.52;0.90;;;14.90;97.30;;;;;;5056497;28;20049;-76
2022/07/05 01:13:23;;;;;;;4.78;1.00;;;14.90;97.30;;;;;;5051756;28;20386;-75
2022/07/05 01:15:50;;;;;;;1.52;0.70;;;14.90;97.40;;;;;;5049695;28;20040;-78
2022/07/05 01:18:16;;;;;;;2.25;0.70;;;14.90;97.70;;;;;;5043550;28;20406;-75
2022/07/05 01:20:43;;;;;;;2.30;0.80;;;14.90;97.70;;;;;;5054089;28;20044;-76
2022/07/05 01:23:09;;;;;;;2.25;0.70;;;14.90;97.80;;;;;;5045031;28;20048;-76
2022/07/05 01:25:35;;;;;;;1.63;1.05;;;15.00;97.90;;;;;;5065331;28;20048;-76
2022/07/05 01:28:04;;;;;;;1.30;0.88;;;15.00;97.90;;;;;;5062870;28;20053;-74
2022/07/05 01:30:33;;;;;;;2.17;0.85;;;15.00;97.90;;;;;;5068951;28;20041;-76
2022/07/05 01:33:00;;;;;;;2.63;0.70;;;15.00;97.90;;;;;;5012258;28;20395;-76
2022/07/05 01:35:26;;;;;;;1.80;0.68;;;15.00;97.90;;;;;;5051708;28;20063;-76
2022/07/05 01:37:52;;;;;;;1.48;0.82;;;15.10;98.00;;;;;;5063498;28;20045;-76
2022/07/05 01:40:20;;;;;;;1.00;0.63;;;15.10;98.10;;;;;;5047720;28;20040;-76
2022/07/05 01:42:47;;;;;;;2.25;0.95;;;15.10;98.10;;;;;;5061997;28;20040;-76
2022/07/05 01:45:38;;;;;;;1.58;0.90;;;15.00;98.30;;;;;;5062540;28;20041;-76
2022/07/05 01:48:14;;;;;;;1.80;0.77;;;15.00;98.70;;;;;;5065467;28;20059;-75
2022/07/05 01:50:51;;;;;;;3.95;1.25;;;14.90;99.10;;;;;;5067046;28;20040;-76
2022/07/05 01:53:23;;;;;;;3.28;0.88;;;14.80;99.60;;;;;;5035875;28;20041;-76
2022/07/05 02:01:53;;;;;;;3.70;1.45;;;14.80;99.60;;;;;;5302543;23;20060;-80
2022/07/05 02:04:20;;;;;;;2.38;1.00;;;14.80;99.30;;;;;;4992909;28;20050;-81
2022/07/05 02:06:46;;;;;;;1.88;0.85;;;14.90;99.00;;;;;;4994771;28;20414;-80
2022/07/05 02:09:13;;;;;;;4.72;1.95;;;14.90;98.80;;;;;;4991747;28;20042;-81
2022/07/05 02:11:39;;;;;;;5.68;1.10;;;14.90;98.60;;;;;;5010794;28;20041;-80
2022/07/05 02:14:06;;;;;;;4.55;1.08;;;15.00;98.70;;;;;;5013463;28;20030;-80
2022/07/05 02:16:39;;;;;;;1.70;0.85;;;15.00;98.50;;;;;;5000579;28;20498;-80
2022/07/05 02:19:05;;;;;;;2.05;1.17;;;15.00;98.50;;;;;;5013113;28;20351;-80
2022/07/05 02:21:36;;;;;;;2.28;1.13;;;15.00;98.30;;;;;;5005265;28;20041;-81
2022/07/05 02:24:06;;;;;;;2.20;1.13;;;15.00;98.30;;;;;;4991683;28;20042;-81
2022/07/05 02:26:37;;;;;;;3.28;0.75;;;15.00;98.30;;;;;;5002023;28;20537;-81
2022/07/05 02:29:04;;;;;;;7.72;1.85;;;15.00;98.30;;;;;;5002621;28;20054;-80
2022/07/05 02:31:32;;;;;;;3.90;1.10;;;14.90;98.70;;;;;;4992050;28;20038;-81
2022/07/05 02:33:59;;;;;;;3.03;1.00;;;14.90;98.90;;;;;;4994566;28;20042;-81
2022/07/05 02:36:26;;;;;;;2.38;1.00;;;14.90;99.10;;;;;;5012114;28;20386;-81
2022/07/05 02:38:52;;;;;;;2.20;1.15;;;14.80;99.00;;;;;;5015195;28;20053;-81
2022/07/05 02:41:20;;;;;;;1.70;0.80;;;14.70;99.60;;;;;;4995258;28;20042;-81
2022/07/05 02:43:49;;;;;;;3.08;1.20;;;14.70;99.90;;;;;;4995237;28;20049;-81
2022/07/05 02:46:18;;;;;;;1.77;0.90;;;14.60;99.90;;;;;;4992011;28;20475;-81
2022/07/05 02:48:45;;;;;;;1.67;0.90;;;14.50;99.90;;;;;;5012763;28;20034;-81
2022/07/05 02:51:12;;;;;;;1.83;1.10;;;14.40;99.90;;;;;;4993051;28;20475;-81
2022/07/05 02:53:38;;;;;;;3.30;1.30;;;14.40;99.90;;;;;;4994390;28;20617;-81
2022/07/05 02:56:07;;;;;;;4.82;0.95;;;14.30;99.90;;;;;;4994777;28;20037;-81
2022/07/05 02:58:33;;;;;;;5.63;2.28;;;14.20;99.90;;;;;;4995209;28;20042;-81
2022/07/05 03:01:02;;;;;;;4.25;2.20;;;14.20;99.90;;;;;;4997609;28;20050;-81
2022/07/05 03:03:31;;;;;;;4.78;1.10;;;13.90;99.90;;;;;;5017579;28;20467;-80
2022/07/05 03:05:58;;;;;;;2.90;1.20;;;13.70;99.90;;;;;;5010658;28;20046;-81
2022/07/05 03:08:25;;;;;;;5.15;1.33;;;13.80;99.90;;;;;;5016814;28;20050;-81
2022/07/05 03:10:51;;;;;;;2.33;1.02;;;13.80;99.90;;;;;;5026381;28;20046;-81
2022/07/05 03:13:17;;;;;;;2.92;0.98;;;13.90;99.90;;;;;;5010364;28;20045;-81
2022/07/05 03:15:44;;;;;;;3.92;1.70;;;13.90;99.90;;;;;;5026278;28;20069;-81
2022/07/05 03:18:13;;;;;;;3.83;0.85;;;13.90;99.90;;;;;;5024883;28;20398;-81
2022/07/05 03:20:40;;;;;;;1.85;0.90;;;13.80;99.90;;;;;;5026305;28;20049;-80
2022/07/05 03:23:06;;;;;;;3.42;1.10;;;13.60;99.90;;;;;;5010929;28;20034;-79
2022/07/05 03:25:40;;;;;;;4.00;1.23;;;13.50;99.90;;;;;;5012018;28;20331;-80
2022/07/05 03:28:07;;;;;;;6.68;1.02;;;13.50;99.90;;;;;;5002030;28;20402;-80
2022/07/05 03:30:34;;;;;;;3.63;1.17;;;13.60;99.90;;;;;;5016263;28;20044;-80
2022/07/05 03:33:01;;;;;;;1.83;1.13;;;13.50;99.90;;;;;;5012873;28;20049;-80
2022/07/05 03:35:30;;;;;;;1.95;1.10;;;13.50;99.90;;;;;;5007296;28;20042;-80
2022/07/05 03:37:57;;;;;;;3.70;1.13;;;13.40;99.90;;;;;;5015162;28;20069;-80
2022/07/05 03:40:24;;;;;;;4.53;1.17;;;13.20;99.90;;;;;;5026981;28;20038;-80
2022/07/05 03:42:50;;;;;;;1.92;1.30;;;13.10;99.90;;;;;;4994168;28;20486;-80
2022/07/05 03:45:17;;;;;;;1.88;0.93;;;13.00;99.90;;;;;;5026291;28;20068;-81
2022/07/05 03:47:44;;;;;;;4.43;1.10;;;13.10;99.90;;;;;;5011247;28;20045;-81
2022/07/05 03:50:13;;;;;;;3.20;1.40;;;13.20;99.90;;;;;;5010952;28;20474;-80
2022/07/05 03:52:40;;;;;;;2.28;1.08;;;13.40;99.90;;;;;;5025813;28;20485;-80
2022/07/05 03:55:07;;;;;;;3.88;1.30;;;13.30;99.90;;;;;;5022327;28;20049;-81
2022/07/05 03:57:34;;;;;;;2.88;1.40;;;13.20;99.90;;;;;;5011892;28;20037;-81
2022/07/05 04:00:01;;;;;;;4.10;1.73;;;13.00;99.90;;;;;;5027123;28;20037;-81
2022/07/05 04:02:27;;;;;;;2.83;1.00;;;12.90;99.90;;;;;;5009782;28;20054;-82
2022/07/05 04:04:54;;;;;;;1.95;1.30;;;13.10;99.90;;;;;;5011795;28;20034;-80
2022/07/05 04:07:22;;;;;;;2.42;0.98;;;13.20;99.90;;;;;;5026174;28;20045;-81
2022/07/05 04:09:48;;;;;;;2.65;1.23;;;13.20;99.90;;;;;;5027328;28;20486;-82
2022/07/05 04:12:15;;;;;;;1.88;0.93;;;13.20;99.90;;;;;;5027038;28;20033;-81
2022/07/05 04:14:43;;;;;;;2.28;1.20;;;13.00;99.90;;;;;;4994835;28;20394;-81
2022/07/05 04:17:09;;;;;;;3.78;1.38;;;12.90;99.90;;;;;;5011932;28;20391;-81
2022/07/05 04:19:36;;;;;;;3.17;1.80;;;13.00;99.90;;;;;;4994408;28;20042;-81
2022/07/05 04:22:02;;;;;;;2.90;1.45;;;13.10;99.90;;;;;;5030442;28;20046;-81
2022/07/05 04:24:29;;;;;;;3.90;1.98;;;13.30;99.90;;;;;;5028228;28;20042;-82
2022/07/05 04:26:56;;;;;;;4.30;1.65;;;13.90;99.90;;;;;;5015711;28;20046;-81
2022/07/05 04:29:25;;;;;;;2.53;1.15;;;15.00;99.90;;;;;;5035071;28;20038;-79
2022/07/05 04:31:52;;;;;;;1.83;0.90;;;16.20;99.90;;;;;;5015165;28;20046;-80
2022/07/05 04:34:18;;;;;;;3.85;1.15;;;17.00;97.90;;;;;;5016394;28;20030;-82
2022/07/05 04:36:45;;;;;;;3.42;1.42;;;17.60;95.50;;;;;;5028863;28;20056;-80
2022/07/05 04:39:12;;;;;;;2.33;0.80;;;18.20;93.40;;;;;;5009647;28;20041;-80
2022/07/05 04:41:45;;;;;;;2.15;1.10;;;18.00;93.50;;;;;;5038950;28;20033;-82
2022/07/05 04:44:12;;;;;;;4.88;1.45;;;18.20;93.30;;;;;;5031824;28;20046;-81
2022/07/05 04:46:38;;;;;;;3.17;0.95;;;18.50;92.20;;;;;;5014649;28;20031;-81
2022/07/05 04:49:05;;;;;;;2.75;1.00;;;19.00;90.90;;;;;;5001886;28;20017;-80
2022/07/05 04:51:31;;;;;;;3.08;1.13;;;19.70;88.90;;;;;;5015155;28;20034;-77
2022/07/05 04:53:58;;;;;;;3.38;1.23;;;20.00;85.10;;;;;;5013226;28;20041;-80
2022/07/05 04:56:24;;;;;;;2.03;1.08;;;20.20;84.40;;;;;;5014244;28;20037;-81
2022/07/05 04:58:50;;;;;;;4.32;1.17;;;20.50;81.80;;;;;;5014775;28;20044;-80
2022/07/05 05:01:16;;;;;;;3.60;1.10;;;20.80;80.40;;;;;;5014621;28;20046;-81
2022/07/05 05:03:42;;;;;;;5.70;1.55;;;21.50;76.90;;;;;;5008684;28;20042;-79
2022/07/05 05:06:09;;;;;;;2.42;1.00;;;22.00;74.80;;;;;;5017547;28;20034;-80
2022/07/05 05:08:35;;;;;;;3.88;1.02;;;23.30;69.20;;;;;;5003374;28;20146;-80
2022/07/05 05:11:01;;;;;;;2.83;1.02;;;23.20;67.40;;;;;;5008508;28;20387;-80
2022/07/05 05:13:27;;;;;;;4.35;1.60;;;22.50;69.30;;;;;;5014389;28;20025;-81
2022/07/05 05:15:54;;;;;;;2.55;0.80;;;22.80;68.90;;;;;;5012796;28;20037;-81
2022/07/05 05:18:24;;;;;;;4.88;0.80;;;22.60;68.30;;;;;;4997200;28;20045;-80
2022/07/05 05:20:50;;;;;;;5.30;1.10;;;22.70;68.10;;;;;;4997357;28;20051;-81
2022/07/05 05:23:16;;;;;;;2.78;0.80;;;22.80;67.70;;;;;;5013268;28;20037;-84
2022/07/05 05:25:42;;;;;;;4.75;1.33;;;23.10;65.80;;;;;;4993006;28;20053;-83
2022/07/05 05:28:08;;;;;;;3.25;1.20;;;23.10;66.10;;;;;;4997009;28;20041;-81
2022/07/05 05:30:35;;;;;;;2.65;0.75;;;22.60;66.50;;;;;;4996983;28;20057;-83
2022/07/05 05:33:01;;;;;;;4.63;0.95;;;22.10;67.70;;;;;;5014173;28;20030;-81
2022/07/05 05:35:27;;;;;;;3.97;1.50;;;22.20;67.70;;;;;;5013851;28;20040;-83
2022/07/05 05:37:55;;;;;;;3.25;1.08;;;22.50;66.80;;;;;;5014592;28;20038;-81
2022/07/05 05:40:23;;;;;;;6.97;1.08;;;22.90;66.10;;;;;;5014043;28;20458;-81
2022/07/05 05:42:51;;;;;;;3.55;1.05;;;22.50;66.30;;;;;;5013725;28;20044;-82
2022/07/05 05:45:18;;;;;;;1.58;0.73;;;22.50;66.50;;;;;;5013791;28;20033;-83
2022/07/05 05:47:49;;;;;;;4.90;1.52;;;22.70;65.90;;;;;;5013342;28;20096;-82
2022/07/05 05:50:25;;;;;;;4.47;1.00;;;23.30;64.60;;;;;;5014378;28;20026;-82
2022/07/05 05:52:52;;;;;;;3.88;1.42;;;23.40;63.50;;;;;;5013881;28;20045;-83
2022/07/05 05:55:20;;;;;;;3.20;0.80;;;23.10;63.70;;;;;;5014081;28;20471;-82
2022/07/05 05:57:46;;;;;;;3.33;1.20;;;23.50;62.80;;;;;;5012976;28;20060;-82
2022/07/05 06:00:14;;;;;;;6.43;1.58;;;23.70;62.50;;;;;;5013857;28;20049;-83
2022/07/05 06:02:42;;;;;;;4.22;0.70;;;23.40;62.40;;;;;;5013145;28;20486;-81
2022/07/05 06:05:09;;;;;;;2.17;0.95;;;23.60;62.60;;;;;;4995829;28;20057;-80
2022/07/05 06:07:45;;;;;;;2.97;0.80;;;23.40;61.60;;;;;;5014879;28;20038;-81
2022/07/05 06:10:15;;;;;;;3.45;0.93;;;23.20;63.20;;;;;;5012873;28;20405;-82
2022/07/05 06:12:41;;;;;;;1.13;0.60;;;23.00;63.50;;;;;;5012400;28;20052;-82
2022/07/05 06:15:08;;;;;;;4.10;0.90;;;23.00;63.30;;;;;;5013267;28;20030;-82
2022/07/05 06:17:38;;;;;;;2.88;0.75;;;23.40;63.10;;;;;;5015732;28;20045;-81
2022/07/05 06:20:26;;;;;;;3.92;1.15;;;22.70;63.50;;;;;;5013364;28;20045;-81
2022/07/05 06:22:53;;;;;;;3.50;0.90;;;23.20;64.30;;;;;;5015015;28;20034;-79
2022/07/05 06:25:20;;;;;;;3.60;1.08;;;23.70;60.80;;;;;;5013477;28;20034;-79
2022/07/05 06:27:59;;;;;;;2.25;0.77;;;23.20;62.10;;;;;;5012385;28;20038;-76
2022/07/05 06:30:30;;;;;;;4.65;1.13;;;23.20;62.10;;;;;;5012711;28;20053;-76
2022/07/05 06:32:57;;;;;;;2.53;0.75;;;23.50;61.00;;;;;;5013033;28;20035;-76
2022/07/05 06:35:23;;;;;;;1.50;0.60;;;23.30;61.30;;;;;;5011630;28;20030;-77
2022/07/05 06:37:56;;;;;;;2.88;0.70;;;23.80;59.90;;;;;;5012351;28;20473;-76
2022/07/05 06:40:24;;;;;;;1.45;0.70;;;23.80;57.70;;;;;;5012313;28;20037;-77
2022/07/05 06:42:51;;;;;;;4.57;0.93;;;23.70;59.00;;;;;;5012334;28;20048;-76
2022/07/05 06:45:22;;;;;;;2.85;1.75;;;23.90;58.30;;;;;;5010272;28;20450;-76
2022/07/05 06:47:58;;;;;;;2.40;0.60;;;24.10;58.40;;;;;;5012171;28;20038;-76
2022/07/05 06:50:29;;;;;;;2.80;0.70;;;24.20;57.20;;;;;;5012421;28;20034;-76
2022/07/05 06:52:56;;;;;;;1.60;0.70;;;24.60;58.10;;;;;;5012450;28;20471;-76
2022/07/05 06:55:23;;;;;;;3.40;0.75;;;24.90;57.50;;;;;;5012026;28;20033;-76
2022/07/05 06:57:55;;;;;;;1.35;1.00;;;24.30;58.00;;;;;;5011470;28;20042;-76
2022/07/05 07:00:21;;;;;;;3.78;0.80;;;24.90;55.70;;;;;;4993121;28;20034;-77
2022/07/05 07:02:48;;;;;;;1.17;0.38;;;25.30;55.80;;;;;;5010954;28;20030;-76
2022/07/05 07:05:14;;;;;;;2.25;1.00;;;24.90;55.70;;;;;;4997780;28;20034;-76
2022/07/05 07:10:25;;;;;;;3.80;0.70;;;25.10;56.00;;;;;;5001881;28;20030;-75
2022/07/05 07:12:51;;;;;;;6.70;0.90;;;25.60;54.80;;;;;;5011966;28;20041;-76
2022/07/05 07:15:17;;;;;;;4.10;0.80;;;25.20;54.80;;;;;;5011538;28;20033;-76
2022/07/05 07:17:44;;;;;;;2.28;0.70;;;24.10;58.00;;;;;;5011481;28;20398;-74
2022/07/05 07:20:10;;;;;;;4.63;1.00;;;24.00;57.60;;;;;;5011952;28;20030;-75
2022/07/05 07:22:37;;;;;;;5.82;0.82;;;24.20;57.40;;;;;;5011854;28;20045;-75
2022/07/05 07:25:05;;;;;;;4.05;0.85;;;24.30;56.20;;;;;;5012230;28;20036;-75
2022/07/05 07:27:31;;;;;;;4.18;0.73;;;24.60;56.10;;;;;;5011501;28;20046;-76
2022/07/05 07:29:57;;;;;;;3.08;0.60;;;25.00;55.50;;;;;;5012200;28;20026;-77
2022/07/05 07:32:23;;;;;;;8.15;1.17;;;25.60;54.90;;;;;;5012269;28;20030;-75
2022/07/05 07:34:49;;;;;;;3.67;0.80;;;26.60;54.20;;;;;;5011318;28;20026;-76
2022/07/05 07:37:16;;;;;;;6.45;1.10;;;26.50;53.70;;;;;;5012714;28;20026;-75
2022/07/05 07:39:42;;;;;;;1.77;0.70;;;25.60;54.10;;;;;;5011085;28;20037;-74
2022/07/05 07:42:08;;;;;;;7.18;0.82;;;26.20;52.50;;;;;;5011974;28;20034;-76
2022/07/05 07:44:34;;;;;;;6.88;1.25;;;26.40;53.00;;;;;;5011539;28;20037;-76
2022/07/05 07:47:01;;;;;;;1.95;0.68;;;26.30;53.70;;;;;;5012445;28;20038;-76
2022/07/05 07:49:27;;;;;;;5.70;1.42;;;27.00;52.80;;;;;;5015256;28;20049;-75
2022/07/05 07:51:53;;;;;;;3.83;0.80;;;26.60;52.40;;;;;;5014977;28;20485;-75
2022/07/05 07:54:19;;;;;;;3.40;0.90;;;25.90;53.30;;;;;;5015502;28;20029;-76
2022/07/05 07:56:45;;;;;;;7.38;1.10;;;26.40;52.90;;;;;;4997324;28;21729;-75
2022/07/05 07:59:11;;;;;;;3.33;0.60;;;26.70;53.10;;;;;;5014838;28;20046;-75
2022/07/05 08:01:38;;;;;;;1.40;0.65;;;26.80;52.40;;;;;;5014250;28;20050;-75
2022/07/05 08:04:04;;;;;;;3.65;0.60;;;26.50;51.80;;;;;;5015560;28;20030;-75
2022/07/05 08:06:30;;;;;;;5.30;0.70;;;26.50;50.80;;;;;;5015317;28;20048;-76
2022/07/05 08:08:56;;;;;;;1.40;0.60;;;25.90;52.20;;;;;;5015439;28;20042;-76
2022/07/05 08:11:23;;;;;;;3.25;0.88;;;25.80;52.00;;;;;;5015532;28;20030;-75
2022/07/05 08:13:49;;;;;;;0.90;0.77;;;26.80;50.70;;;;;;5014754;28;20106;-75
2022/07/05 08:16:15;;;;;;;3.53;0.60;;;26.80;50.70;;;;;;5015427;28;20125;-76
2022/07/05 08:21:31;;;;;;;6.40;0.70;;;26.50;51.40;;;;;;5015464;28;20032;-75
2022/07/05 08:23:59;;;;;;;3.05;0.80;;;25.50;51.10;;;;;;5000928;28;20038;-74
2022/07/05 08:26:27;;;;;;;1.50;0.63;;;25.30;51.90;;;;;;5015334;28;20057;-76
2022/07/05 08:28:53;;;;;;;3.00;0.80;;;25.70;51.30;;;;;;5014312;28;20064;-73
2022/07/05 08:31:20;;;;;;;0.93;0.60;;;26.10;51.20;;;;;;5014723;28;20041;-73
2022/07/05 08:33:47;;;;;;;2.50;0.77;;;25.80;50.10;;;;;;5014509;28;20491;-73
2022/07/05 08:36:13;;;;;;;2.97;0.70;;;25.90;50.30;;;;;;5014275;28;20081;-73
2022/07/05 08:38:39;;;;;;;2.85;0.80;;;26.70;50.70;;;;;;5014624;28;20046;-74
2022/07/05 08:41:07;;;;;;;3.17;0.65;;;26.70;49.70;;;;;;5014664;28;20038;-75
2022/07/05 08:43:39;;;;;;;2.20;0.55;;;26.30;49.90;;;;;;5014567;28;20030;-75
2022/07/05 08:46:08;;;;;;;1.35;0.57;;;26.00;49.70;;;;;;5015262;28;20034;-75
2022/07/05 08:48:41;;;;;;;2.67;0.60;;;26.10;49.70;;;;;;5014865;28;20038;-75
2022/07/05 08:51:16;;;;;;;4.25;0.57;;;25.30;50.50;;;;;;5014553;28;20033;-75
2022/07/05 08:53:44;;;;;;;5.88;0.80;;;25.60;51.60;;;;;;4995455;28;20049;-75
2022/07/05 08:56:13;;;;;;;3.67;0.70;;;26.40;51.40;;;;;;5014792;28;20037;-75
2022/07/05 08:58:39;;;;;;;2.10;0.63;;;27.30;49.80;;;;;;5013430;28;20036;-74
2022/07/05 09:01:07;;;;;;;1.13;0.50;;;27.00;48.50;;;;;;5013885;28;20065;-75
2022/07/05 09:03:47;;;;;;;3.08;0.50;;;26.60;49.50;;;;;;5014165;28;20029;-75
2022/07/05 09:06:18;;;;;;;1.67;0.60;;;26.80;48.60;;;;;;5014791;28;20034;-75
2022/07/05 09:08:45;;;;;;;1.08;0.43;;;26.80;48.90;;;;;;5014287;28;20034;-75
2022/07/05 09:11:13;;;;;;;3.05;0.50;;;26.70;48.70;;;;;;5014560;28;20348;-77
2022/07/05 09:13:48;;;;;;;1.83;0.43;;;26.40;48.80;;;;;;5025252;28;20034;-76
2022/07/05 09:16:15;;;;;;;1.75;0.63;;;26.90;47.70;;;;;;5035050;28;20026;-75
2022/07/05 09:18:45;;;;;;;4.60;0.57;;;27.10;47.90;;;;;;5026093;28;20490;-73
2022/07/05 09:21:16;;;;;;;1.23;0.40;;;27.60;49.00;;;;;;5011031;28;20042;-74
2022/07/05 09:23:43;;;;;;;2.47;0.52;;;27.40;47.30;;;;;;5013691;28;20038;-74
2022/07/05 09:26:10;;;;;;;3.47;0.50;;;27.30;47.20;;;;;;5014539;28;20034;-76
2022/07/05 09:28:36;;;;;;;2.58;0.70;;;27.40;47.20;;;;;;4996410;28;20049;-74
2022/07/05 09:31:03;;;;;;;4.82;0.70;;;27.40;47.30;;;;;;5013434;28;20454;-74
2022/07/05 09:33:29;;;;;;;3.25;0.50;;;27.60;46.60;;;;;;5013719;28;20382;-74
2022/07/05 09:36:01;;;;;;;0.88;0.40;;;27.90;47.30;;;;;;5013727;28;20037;-74
2022/07/05 09:38:28;;;;;;;1.23;0.40;;;27.60;46.00;;;;;;5013431;28;20057;-74
2022/07/05 09:40:57;;;;;;;2.67;0.55;;;27.30;47.10;;;;;;5012687;28;20030;-74
2022/07/05 09:43:27;;;;;;;4.60;1.10;;;27.10;46.50;;;;;;5013840;28;20034;-75
2022/07/05 09:45:58;;;;;;;3.45;0.90;;;27.60;47.30;;;;;;5013683;28;20034;-74
2022/07/05 09:48:25;;;;;;;4.90;0.65;;;28.00;46.60;;;;;;5013619;28;20382;-75
2022/07/05 09:50:51;;;;;;;3.22;0.55;;;27.90;46.40;;;;;;5013212;28;20394;-74
2022/07/05 09:53:19;;;;;;;4.47;0.60;;;27.40;46.90;;;;;;5013558;28;20041;-75
2022/07/05 09:56:01;;;;;;;2.67;0.50;;;27.30;47.20;;;;;;4995244;28;20025;-74
2022/07/05 09:58:29;;;;;;;3.28;0.68;;;27.10;47.10;;;;;;5013566;28;20025;-75
2022/07/05 10:00:56;;;;;;;1.27;0.35;;;27.80;46.70;;;;;;5012954;28;20061;-74
2022/07/05 10:03:22;;;;;;;4.47;0.70;;;27.60;46.80;;;;;;5013140;28;20041;-74
2022/07/05 10:05:48;;;;;;;1.42;0.50;;;27.50;46.30;;;;;;5012800;28;20034;-75
2022/07/05 10:08:16;;;;;;;6.15;0.73;;;27.50;47.00;;;;;;5013404;28;20042;-74
2022/07/05 10:10:45;;;;;;;2.13;0.50;;;26.50;47.50;;;;;;5012110;28;20030;-74
2022/07/05 10:13:14;;;;;;;5.40;0.87;;;26.70;47.70;;;;;;5012930;28;20360;-74
2022/07/05 10:15:42;;;;;;;6.60;0.77;;;26.60;48.20;;;;;;5012714;28;20289;-74
2022/07/05 10:18:12;;;;;;;3.63;0.63;;;26.90;47.20;;;;;;5013039;28;20288;-74
2022/07/05 10:20:43;;;;;;;1.77;0.40;;;26.80;48.30;;;;;;4995307;28;20049;-75
2022/07/05 10:23:14;;;;;;;4.65;0.82;;;27.00;48.90;;;;;;5012566;28;20037;-76
2022/07/05 10:25:44;;;;;;;6.10;0.75;;;26.60;47.70;;;;;;4992943;28;20042;-73
2022/07/05 10:28:10;;;;;;;;;;;26.10;48.70;;;;;;5010375;28;20041;-73
2022/07/05 10:30:37;;;;;;;3.20;0.60;;;26.30;47.80;;;;;;5012012;28;19921;-73
2022/07/05 10:33:07;;;;;;;1.17;0.57;;;26.20;47.60;;;;;;5012926;28;20586;-75
2022/07/05 10:35:34;;;;;;;1.60;0.50;;;26.70;48.90;;;;;;5010892;28;20034;-74
2022/07/05 10:38:01;;;;;;;0.90;0.50;;;27.70;47.60;;;;;;5012952;28;20036;-73
2022/07/05 10:40:30;;;;;;;1.30;0.50;;;27.90;45.40;;;;;;5012430;28;20025;-75
2022/07/05 10:43:01;;;;;;;2.63;0.57;;;27.30;48.60;;;;;;5012498;28;20391;-74
2022/07/05 10:45:34;;;;;;;5.28;1.23;;;26.80;46.80;;;;;;5012507;28;20026;-74
2022/07/05 10:48:09;;;;;;;4.22;0.77;;;26.80;46.70;;;;;;5012847;28;20033;-74
2022/07/05 10:50:54;;;;;;;3.13;0.70;;;27.00;48.00;;;;;;5012035;28;20048;-74
2022/07/05 10:53:30;;;;;;;0.90;0.60;;;27.00;47.10;;;;;;5011828;28;20033;-73
2022/07/05 10:55:58;;;;;;;2.17;0.60;;;26.90;47.70;;;;;;4975309;28;20047;-73
2022/07/05 10:58:41;;;;;;;3.05;0.70;;;26.90;46.90;;;;;;5010602;28;20038;-75
2022/07/05 11:01:20;;;;;;;1.80;0.50;;;26.90;46.60;;;;;;5011968;28;20060;-75
2022/07/05 11:04:10;;;;;;;3.70;0.80;;;27.00;46.60;;;;;;5011812;28;20042;-74
2022/07/05 11:06:41;;;;;;;3.70;0.50;;;27.10;46.30;;;;;;5011565;28;20037;-75
2022/07/05 11:09:11;;;;;;;4.05;0.85;;;26.80;46.70;;;;;;5012270;28;20042;-74
2022/07/05 11:11:42;;;;;;;1.80;0.50;;;26.80;47.40;;;;;;5011494;28;20029;-75
2022/07/05 11:14:21;;;;;;;1.45;0.55;;;27.00;47.00;;;;;;4994603;28;20034;-75
2022/07/05 11:17:08;;;;;;;2.80;0.90;;;27.10;46.30;;;;;;5011558;28;20032;-75
2022/07/05 11:20:06;;;;;;;0.90;0.60;;;27.00;45.60;;;;;;5002405;28;20037;-77
2022/07/05 11:22:35;;;;;;;1.60;0.50;;;27.40;46.30;;;;;;5012000;28;20030;-73
2022/07/05 11:25:03;;;;;;;3.55;0.50;;;27.70;46.20;;;;;;5011627;28;20037;-73
2022/07/05 11:27:30;;;;;;;2.70;0.70;;;27.80;46.00;;;;;;5012108;28;20033;-75
2022/07/05 11:29:57;;;;;;;1.75;0.60;;;27.60;45.80;;;;;;5011261;28;20042;-74
2022/07/05 11:32:36;;;;;;;1.67;0.73;;;27.70;46.80;;;;;;5011651;28;20025;-75
2022/07/05 11:35:17;;;;;;;3.97;0.90;;;27.40;45.80;;;;;;4990937;28;20046;-74
2022/07/05 11:38:00;;;;;;;0.95;0.50;;;27.10;45.70;;;;;;5004991;28;20291;-74
2022/07/05 11:40:34;;;;;;;1.45;0.60;;;27.30;46.60;;;;;;5012357;28;20037;-75
2022/07/05 11:43:02;;;;;;;0.93;0.40;;;27.40;45.00;;;;;;5012023;28;20030;-75
2022/07/05 11:45:30;;;;;;;3.95;0.68;;;27.30;44.80;;;;;;5012008;28;20037;-74
2022/07/05 11:47:57;;;;;;;4.18;0.80;;;27.30;45.20;;;;;;5012197;28;20251;-74
2022/07/05 11:50:31;;;;;;;1.00;0.50;;;27.30;45.60;;;;;;4978446;28;20050;-75
2022/07/05 11:52:59;;;;;;;2.15;0.63;;;27.40;44.70;;;;;;5011133;28;20037;-75
2022/07/05 11:55:27;;;;;;;2.55;0.65;;;27.50;44.10;;;;;;5012067;28;20486;-74
2022/07/05 11:57:54;;;;;;;3.55;0.60;;;27.50;44.50;;;;;;5011581;28;20042;-73
2022/07/05 12:00:35;;;;;;;1.45;0.68;;;28.00;44.50;;;;;;5010637;28;20046;-73
2022/07/05 12:03:13;;;;;;;3.72;0.73;;;28.10;43.80;;;;;;4993913;28;20049;-72
2022/07/05 12:05:42;;;;;;;3.15;0.98;;;28.00;43.50;;;;;;4984492;28;20502;-74
2022/07/05 12:08:09;;;;;;;2.67;0.60;;;28.30;43.50;;;;;;5002370;28;20041;-73
2022/07/05 12:13:21;;;;;;;2.22;0.40;;;28.10;42.80;;;;;;5011574;28;20057;-74
2022/07/05 12:15:48;;;;;;;2.35;0.60;;;27.80;42.80;;;;;;5011364;28;20037;-74
2022/07/05 12:18:15;;;;;;;0.98;0.68;;;27.60;44.20;;;;;;5011659;28;20030;-73
2022/07/05 12:20:42;;;;;;;2.13;0.60;;;27.70;42.70;;;;;;5010995;28;20041;-74
2022/07/05 12:23:08;;;;;;;2.65;0.52;;;27.30;43.10;;;;;;5011610;28;20041;-73
2022/07/05 12:25:35;;;;;;;0.95;0.40;;;27.30;42.50;;;;;;5011433;28;20034;-74
2022/07/05 12:28:05;;;;;;;2.10;0.70;;;27.10;42.60;;;;;;5011573;28;20046;-73
2022/07/05 12:30:32;;;;;;;0.88;0.50;;;27.10;43.10;;;;;;5011484;28;20046;-74
2022/07/05 12:33:05;;;;;;;1.48;0.60;;;26.90;43.10;;;;;;4995983;28;20038;-74
2022/07/05 12:35:46;;;;;;;1.48;0.60;;;26.90;43.30;;;;;;5014328;28;20057;-74
2022/07/05 12:38:16;;;;;;;2.88;0.60;;;26.80;42.20;;;;;;5015181;28;20034;-73
2022/07/05 12:40:43;;;;;;;;;;;26.80;42.10;;;;;;5013931;28;20406;-74
2022/07/05 12:43:15;;;;;;;1.05;0.40;;;27.20;42.50;;;;;;5014860;28;19917;-74
2022/07/05 12:45:43;;;;;;;7.72;1.08;;;27.50;41.30;;;;;;5014251;28;20032;-73
2022/07/05 12:48:10;;;;;;;1.35;0.45;;;27.70;42.70;;;;;;5014383;28;20383;-73
2022/07/05 12:50:50;;;;;;;2.95;0.50;;;28.20;42.10;;;;;;5014569;28;20034;-74
2022/07/05 12:59:00;;;;;;;2.67;0.77;;;28.10;41.20;;;;;;5014251;28;20042;-74
2022/07/05 13:01:38;;;;;;;2.30;0.30;;;27.40;41.30;;;;;;5014295;28;20061;-74
2022/07/05 13:04:08;;;;;;;3.92;0.75;;;27.40;41.90;;;;;;5014331;28;20034;-75
2022/07/05 13:06:51;;;;;;;2.78;0.63;;;27.40;41.10;;;;;;5014594;28;20030;-74
2022/07/05 13:09:32;;;;;;;3.20;0.80;;;27.50;41.40;;;;;;5014313;28;20045;-74
2022/07/05 13:12:21;;;;;;;2.20;0.70;;;27.50;43.00;;;;;;5014465;28;20274;-74
2022/07/05 13:14:49;;;;;;;1.67;0.60;;;27.60;42.00;;;;;;5013385;28;20045;-74
2022/07/05 13:17:17;;;;;;;1.58;0.52;;;27.90;42.40;;;;;;5014399;28;20041;-74
2022/07/05 13:19:46;;;;;;;1.02;0.52;;;28.10;41.50;;;;;;5014011;28;20037;-75